createdAt,value
2018-11-27T00:00:35.188Z,0
2018-11-27T00:01:37.597Z,0
2018-11-27T00:02:39.626Z,0
2018-11-27T00:03:41.941Z,0
2018-11-27T00:04:43.974Z,0
2018-11-27T00:05:45.997Z,0
2018-11-27T00:06:48.030Z,0
2018-11-27T00:07:50.044Z,0
2018-11-27T00:08:52.072Z,0
2018-11-27T00:09:54.109Z,0
2018-11-27T00:10:56.122Z,0
2018-11-27T00:11:58.156Z,0
2018-11-27T00:13:00.183Z,0
2018-11-27T00:14:02.506Z,0
2018-11-27T00:15:04.512Z,0
2018-11-27T00:16:06.545Z,0
2018-11-27T00:17:08.580Z,0
2018-11-27T00:18:10.984Z,0
2018-11-27T00:19:13.044Z,0
2018-11-27T00:20:15.057Z,0
2018-11-27T00:21:17.078Z,0
2018-11-27T00:22:19.774Z,0
2018-11-27T00:23:21.807Z,0
2018-11-27T00:24:23.831Z,0
2018-11-27T00:25:26.131Z,0
2018-11-27T00:26:28.180Z,0
2018-11-27T00:27:30.193Z,0
2018-11-27T00:28:32.228Z,0
2018-11-27T00:29:34.251Z,0
2018-11-27T00:30:36.557Z,0
2018-11-27T00:31:38.583Z,0
2018-11-27T00:32:40.653Z,0
2018-11-27T00:33:43.247Z,0
2018-11-27T00:34:45.283Z,0
2018-11-27T00:35:47.308Z,0
2018-11-27T00:36:49.370Z,0
2018-11-27T00:37:51.396Z,0
2018-11-27T00:38:53.430Z,0
2018-11-27T00:39:55.446Z,0
2018-11-27T00:40:57.482Z,0
2018-11-27T00:41:59.503Z,0
2018-11-27T00:43:01.520Z,0
2018-11-27T00:44:03.561Z,0
2018-11-27T00:45:05.575Z,0
2018-11-27T00:46:07.604Z,0
2018-11-27T00:47:09.622Z,0
2018-11-27T00:48:11.656Z,0
2018-11-27T00:49:13.676Z,0
2018-11-27T00:50:15.700Z,0
2018-11-27T00:51:17.727Z,0
2018-11-27T00:52:19.740Z,0
2018-11-27T00:53:21.771Z,0
2018-11-27T00:54:23.793Z,0
2018-11-27T00:55:25.828Z,0
2018-11-27T00:56:27.845Z,0
2018-11-27T00:57:29.874Z,0
2018-11-27T00:58:31.901Z,0
2018-11-27T00:59:33.925Z,0
2018-11-27T01:00:35.974Z,0
2018-11-27T01:01:38.386Z,0
2018-11-27T01:02:41.085Z,0
2018-11-27T01:03:43.119Z,0
2018-11-27T01:04:45.145Z,0
2018-11-27T01:05:47.451Z,0
2018-11-27T01:06:49.864Z,0
2018-11-27T01:07:52.176Z,0
2018-11-27T01:08:54.510Z,0
2018-11-27T01:09:56.809Z,0
2018-11-27T01:10:58.836Z,0
2018-11-27T01:12:00.869Z,0
2018-11-27T01:13:02.893Z,0
2018-11-27T01:14:04.923Z,0
2018-11-27T01:15:06.949Z,0
2018-11-27T01:16:08.967Z,0
2018-11-27T01:17:11.027Z,0
2018-11-27T01:18:13.324Z,0
2018-11-27T01:19:15.350Z,0
2018-11-27T01:20:17.370Z,0
2018-11-27T01:21:19.410Z,0
2018-11-27T01:22:21.430Z,0
2018-11-27T01:23:23.455Z,0
2018-11-27T01:24:25.491Z,0
2018-11-27T01:25:27.496Z,0
2018-11-27T01:26:29.530Z,0
2018-11-27T01:27:31.551Z,0
2018-11-27T01:28:33.876Z,0
2018-11-27T01:29:35.895Z,0
2018-11-27T01:30:38.315Z,0
2018-11-27T01:31:40.340Z,0
2018-11-27T01:32:42.364Z,0
2018-11-27T01:33:44.708Z,0
2018-11-27T01:34:46.722Z,0
2018-11-27T01:35:48.750Z,0
2018-11-27T01:36:50.780Z,0
2018-11-27T01:37:52.814Z,0
2018-11-27T01:38:54.838Z,0
2018-11-27T01:39:56.866Z,0
2018-11-27T01:40:59.164Z,0
2018-11-27T01:42:01.188Z,0
2018-11-27T01:43:03.230Z,0
2018-11-27T01:44:05.256Z,0
2018-11-27T01:45:07.284Z,0
2018-11-27T01:46:09.319Z,0
2018-11-27T01:47:11.335Z,0
2018-11-27T01:48:13.363Z,0
2018-11-27T01:49:15.404Z,0
2018-11-27T01:50:17.415Z,0
2018-11-27T01:51:19.446Z,0
2018-11-27T01:52:21.500Z,0
2018-11-27T01:53:23.535Z,0
2018-11-27T01:54:26.122Z,0
2018-11-27T01:55:28.431Z,0
2018-11-27T01:56:30.447Z,0
2018-11-27T01:57:32.459Z,0
2018-11-27T01:58:34.535Z,0
2018-11-27T01:59:36.945Z,0
2018-11-27T02:00:38.976Z,0
2018-11-27T02:01:41.004Z,0
2018-11-27T02:02:43.044Z,0
2018-11-27T02:03:45.065Z,0
2018-11-27T02:04:47.087Z,0
2018-11-27T02:05:49.116Z,0
2018-11-27T02:06:51.124Z,0
2018-11-27T02:07:53.162Z,0
2018-11-27T02:08:55.479Z,0
2018-11-27T02:09:57.495Z,0
2018-11-27T02:10:59.519Z,0
2018-11-27T02:12:01.559Z,0
2018-11-27T02:13:03.867Z,0
2018-11-27T02:14:05.903Z,0
2018-11-27T02:15:07.928Z,0
2018-11-27T02:16:09.951Z,0
2018-11-27T02:17:11.980Z,0
2018-11-27T02:18:14.008Z,0
2018-11-27T02:19:16.023Z,0
2018-11-27T02:20:18.059Z,0
2018-11-27T02:21:20.084Z,0
2018-11-27T02:22:22.112Z,0
2018-11-27T02:23:25.074Z,0
2018-11-27T02:24:27.109Z,0
2018-11-27T02:25:29.130Z,0
2018-11-27T02:26:31.168Z,0
2018-11-27T02:27:33.186Z,0
2018-11-27T02:28:35.215Z,0
2018-11-27T02:29:37.528Z,0
2018-11-27T02:30:39.549Z,0
2018-11-27T02:31:42.275Z,0
2018-11-27T02:32:44.297Z,0
2018-11-27T02:33:46.327Z,0
2018-11-27T02:34:48.931Z,0
2018-11-27T02:35:51.247Z,0
2018-11-27T02:36:53.546Z,0
2018-11-27T02:37:55.578Z,0
2018-11-27T02:38:58.573Z,0
2018-11-27T02:40:01.189Z,0
2018-11-27T02:41:03.313Z,0
2018-11-27T02:42:05.722Z,0
2018-11-27T02:43:07.784Z,0
2018-11-27T02:44:09.808Z,0
2018-11-27T02:45:12.134Z,0
2018-11-27T02:46:14.242Z,0
2018-11-27T02:47:16.288Z,0
2018-11-27T02:48:18.334Z,0
2018-11-27T02:49:20.634Z,0
2018-11-27T02:50:22.659Z,0
2018-11-27T02:51:24.714Z,0
2018-11-27T02:52:27.124Z,0
2018-11-27T02:53:29.169Z,0
2018-11-27T02:54:31.197Z,0
2018-11-27T02:55:33.234Z,0
2018-11-27T02:56:35.862Z,0
2018-11-27T02:57:37.875Z,0
2018-11-27T02:58:40.189Z,0
2018-11-27T02:59:42.204Z,0
2018-11-27T03:00:44.233Z,0
2018-11-27T03:01:46.285Z,0
2018-11-27T03:02:48.316Z,0
2018-11-27T03:03:50.655Z,0
2018-11-27T03:04:52.702Z,0
2018-11-27T03:05:54.718Z,0
2018-11-27T03:06:56.748Z,0
2018-11-27T03:07:59.156Z,0
2018-11-27T03:09:01.592Z,0
2018-11-27T03:10:04.394Z,0
2018-11-27T03:11:06.426Z,0
2018-11-27T03:12:08.753Z,0
2018-11-27T03:13:10.765Z,0
2018-11-27T03:14:13.197Z,0
2018-11-27T03:15:15.226Z,0
2018-11-27T03:16:17.527Z,0
2018-11-27T03:17:19.582Z,0
2018-11-27T03:18:21.642Z,0
2018-11-27T03:19:23.956Z,0
2018-11-27T03:20:26.279Z,0
2018-11-27T03:21:28.316Z,0
2018-11-27T03:22:30.636Z,0
2018-11-27T03:23:32.668Z,0
2018-11-27T03:24:34.984Z,0
2018-11-27T03:25:37.287Z,0
2018-11-27T03:26:39.329Z,0
2018-11-27T03:27:41.356Z,0
2018-11-27T03:28:43.376Z,0
2018-11-27T03:29:45.447Z,0
2018-11-27T03:30:47.480Z,0
2018-11-27T03:31:50.704Z,0
2018-11-27T03:32:53.065Z,0
2018-11-27T03:33:56.896Z,0
2018-11-27T03:34:59.501Z,0
2018-11-27T03:36:01.526Z,0
2018-11-27T03:37:03.569Z,0
2018-11-27T03:38:05.994Z,0
2018-11-27T03:39:08.005Z,0
2018-11-27T03:40:10.036Z,0
2018-11-27T03:41:12.065Z,0
2018-11-27T03:42:14.123Z,0
2018-11-27T03:43:16.154Z,0
2018-11-27T03:44:18.198Z,0
2018-11-27T03:45:20.237Z,0
2018-11-27T03:46:22.248Z,0
2018-11-27T03:47:24.573Z,0
2018-11-27T03:48:26.990Z,0
2018-11-27T03:49:29.019Z,0
2018-11-27T03:50:31.063Z,0
2018-11-27T03:51:33.113Z,0
2018-11-27T03:52:35.145Z,0
2018-11-27T03:53:37.194Z,0
2018-11-27T03:54:39.227Z,0
2018-11-27T03:55:41.241Z,0
2018-11-27T03:56:43.269Z,0
2018-11-27T03:57:45.313Z,0
2018-11-27T03:58:47.611Z,0
2018-11-27T03:59:49.656Z,0
2018-11-27T04:00:51.696Z,0
2018-11-27T04:01:53.718Z,0
2018-11-27T04:02:55.765Z,0
2018-11-27T04:03:57.839Z,0
2018-11-27T04:04:59.867Z,0
2018-11-27T04:06:02.657Z,0
2018-11-27T04:07:04.710Z,0
2018-11-27T04:08:06.728Z,0
2018-11-27T04:09:08.760Z,0
2018-11-27T04:10:10.800Z,0
2018-11-27T04:11:13.105Z,0
2018-11-27T04:12:15.157Z,0
2018-11-27T04:13:17.201Z,0
2018-11-27T04:14:19.813Z,0
2018-11-27T04:15:22.123Z,0
2018-11-27T04:16:24.478Z,0
2018-11-27T04:17:26.509Z,0
2018-11-27T04:18:28.558Z,0
2018-11-27T04:19:30.625Z,0
2018-11-27T04:20:32.653Z,0
2018-11-27T04:21:35.096Z,0
2018-11-27T04:22:37.187Z,0
2018-11-27T04:23:39.244Z,0
2018-11-27T04:24:42.054Z,0
2018-11-27T04:25:44.096Z,0
2018-11-27T04:26:46.124Z,0
2018-11-27T04:27:48.178Z,0
2018-11-27T04:28:50.955Z,0
2018-11-27T04:29:53.384Z,0
2018-11-27T04:30:55.692Z,0
2018-11-27T04:31:58.132Z,0
2018-11-27T04:33:00.161Z,0
2018-11-27T04:34:02.210Z,0
2018-11-27T04:35:04.533Z,0
2018-11-27T04:36:06.553Z,0
2018-11-27T04:37:08.594Z,0
2018-11-27T04:38:11.008Z,0
2018-11-27T04:39:13.047Z,0
2018-11-27T04:40:15.075Z,0
2018-11-27T04:41:17.402Z,0
2018-11-27T04:42:19.442Z,0
2018-11-27T04:43:21.472Z,0
2018-11-27T04:44:23.532Z,0
2018-11-27T04:45:25.630Z,0
2018-11-27T04:46:28.540Z,0
2018-11-27T04:47:30.593Z,0
2018-11-27T04:48:32.949Z,0
2018-11-27T04:49:35.266Z,0
2018-11-27T04:50:37.302Z,0
2018-11-27T04:51:39.618Z,0
2018-11-27T04:52:42.023Z,0
2018-11-27T04:53:44.371Z,0
2018-11-27T04:54:46.398Z,0
2018-11-27T04:55:48.436Z,0
2018-11-27T04:56:50.476Z,0
2018-11-27T04:57:52.507Z,0
2018-11-27T04:58:54.941Z,0
2018-11-27T04:59:57.246Z,0
2018-11-27T05:00:59.275Z,0
2018-11-27T05:02:01.320Z,0
2018-11-27T05:03:03.626Z,0
2018-11-27T05:04:05.647Z,0
2018-11-27T05:05:07.703Z,0
2018-11-27T05:06:09.731Z,0
2018-11-27T05:07:11.760Z,0
2018-11-27T05:08:13.809Z,0
2018-11-27T05:09:16.488Z,0
2018-11-27T05:10:19.248Z,0
2018-11-27T05:11:21.671Z,0
2018-11-27T05:12:23.981Z,0
2018-11-27T05:13:25.996Z,0
2018-11-27T05:14:28.036Z,0
2018-11-27T05:15:30.065Z,0
2018-11-27T05:16:32.082Z,0
2018-11-27T05:17:34.126Z,0
2018-11-27T05:18:36.145Z,0
2018-11-27T05:19:38.167Z,0
2018-11-27T05:20:40.227Z,0
2018-11-27T05:21:42.290Z,0
2018-11-27T05:22:44.310Z,0
2018-11-27T05:23:46.615Z,0
2018-11-27T05:24:48.642Z,0
2018-11-27T05:25:50.652Z,0
2018-11-27T05:26:53.015Z,0
2018-11-27T05:27:55.041Z,0
2018-11-27T05:28:57.062Z,0
2018-11-27T05:29:59.085Z,0
2018-11-27T05:31:01.125Z,0
2018-11-27T05:32:03.155Z,0
2018-11-27T05:33:05.173Z,0
2018-11-27T05:34:07.202Z,0
2018-11-27T05:35:09.623Z,0
2018-11-27T05:36:11.656Z,0
2018-11-27T05:37:14.062Z,0
2018-11-27T05:38:16.777Z,0
2018-11-27T05:39:18.805Z,0
2018-11-27T05:40:20.880Z,0
2018-11-27T05:41:23.207Z,0
2018-11-27T05:42:25.218Z,0
2018-11-27T05:43:27.243Z,0
2018-11-27T05:44:29.272Z,0
2018-11-27T05:45:31.300Z,0
2018-11-27T05:46:33.325Z,0
2018-11-27T05:47:35.748Z,0
2018-11-27T05:48:38.051Z,0
2018-11-27T05:49:40.079Z,0
2018-11-27T05:50:42.129Z,0
2018-11-27T05:51:44.142Z,0
2018-11-27T05:52:46.167Z,0
2018-11-27T05:53:48.574Z,0
2018-11-27T05:54:50.994Z,0
2018-11-27T05:55:53.021Z,0
2018-11-27T05:56:55.045Z,0
2018-11-27T05:57:57.077Z,0
2018-11-27T05:58:59.377Z,0
2018-11-27T06:00:01.415Z,0
2018-11-27T06:01:03.442Z,0
2018-11-27T06:02:05.478Z,0
2018-11-27T06:03:07.515Z,0
2018-11-27T06:04:09.550Z,0
2018-11-27T06:05:11.577Z,0
2018-11-27T06:06:13.612Z,0
2018-11-27T06:07:15.635Z,0
2018-11-27T06:08:17.653Z,0
2018-11-27T06:09:19.680Z,0
2018-11-27T06:10:21.701Z,0
2018-11-27T06:11:23.735Z,0
2018-11-27T06:12:25.756Z,0
2018-11-27T06:13:27.788Z,0
2018-11-27T06:14:29.813Z,0
2018-11-27T06:15:32.675Z,0
2018-11-27T06:16:34.777Z,0
2018-11-27T06:17:36.802Z,0
2018-11-27T06:18:38.834Z,0
2018-11-27T06:19:40.849Z,0
2018-11-27T06:20:42.883Z,0
2018-11-27T06:21:45.294Z,0
2018-11-27T06:22:47.307Z,0
2018-11-27T06:23:49.355Z,0
2018-11-27T06:24:51.374Z,0
2018-11-27T06:25:53.403Z,4
2018-11-27T06:26:55.421Z,4
2018-11-27T06:27:57.450Z,0
2018-11-27T06:28:59.472Z,4
2018-11-27T06:30:01.785Z,4
2018-11-27T06:31:03.832Z,4
2018-11-27T06:32:05.844Z,4
2018-11-27T06:33:07.881Z,8
2018-11-27T06:34:09.908Z,4
2018-11-27T06:35:11.931Z,8
2018-11-27T06:36:13.964Z,8
2018-11-27T06:37:16.006Z,8
2018-11-27T06:38:18.033Z,16
2018-11-27T06:39:20.351Z,16
2018-11-27T06:40:22.379Z,20
2018-11-27T06:41:24.685Z,20
2018-11-27T06:42:26.713Z,24
2018-11-27T06:43:28.753Z,28
2018-11-27T06:44:30.764Z,32
2018-11-27T06:45:32.838Z,36
2018-11-27T06:46:35.154Z,44
2018-11-27T06:47:37.181Z,48
2018-11-27T06:48:39.227Z,56
2018-11-27T06:49:41.252Z,64
2018-11-27T06:50:43.280Z,72
2018-11-27T06:51:45.683Z,84
2018-11-27T06:52:47.715Z,96
2018-11-27T06:53:49.735Z,108
2018-11-27T06:54:51.762Z,120
2018-11-27T06:55:53.793Z,136
2018-11-27T06:56:56.089Z,148
2018-11-27T06:57:58.129Z,164
2018-11-27T06:59:00.818Z,180
2018-11-27T07:00:03.123Z,200
2018-11-27T07:01:05.132Z,216
2018-11-27T07:02:07.168Z,232
2018-11-27T07:03:09.191Z,248
2018-11-27T07:04:11.231Z,268
2018-11-27T07:05:13.276Z,292
2018-11-27T07:06:15.304Z,316
2018-11-27T07:07:17.334Z,344
2018-11-27T07:08:19.373Z,372
2018-11-27T07:09:21.398Z,408
2018-11-27T07:10:23.416Z,440
2018-11-27T07:11:25.447Z,472
2018-11-27T07:12:27.912Z,504
2018-11-27T07:13:30.436Z,540
2018-11-27T07:14:33.822Z,584
2018-11-27T07:15:36.354Z,624
2018-11-27T07:16:38.371Z,672
2018-11-27T07:17:40.415Z,724
2018-11-27T07:18:42.725Z,768
2018-11-27T07:19:44.745Z,812
2018-11-27T07:20:46.781Z,852
2018-11-27T07:21:48.794Z,892
2018-11-27T07:22:50.826Z,928
2018-11-27T07:23:53.127Z,968
2018-11-27T07:24:55.166Z,1016
2018-11-27T07:25:57.192Z,1072
2018-11-27T07:26:59.213Z,1112
2018-11-27T07:28:01.634Z,1152
2018-11-27T07:29:03.670Z,1192
2018-11-27T07:30:05.680Z,1232
2018-11-27T07:31:07.713Z,1268
2018-11-27T07:32:09.786Z,1304
2018-11-27T07:33:11.856Z,1328
2018-11-27T07:34:13.919Z,1360
2018-11-27T07:35:15.958Z,1396
2018-11-27T07:36:18.298Z,1440
2018-11-27T07:37:20.618Z,1496
2018-11-27T07:38:22.663Z,1560
2018-11-27T07:39:24.682Z,1628
2018-11-27T07:40:26.710Z,1692
2018-11-27T07:41:28.738Z,1752
2018-11-27T07:42:30.761Z,1808
2018-11-27T07:43:32.783Z,1856
2018-11-27T07:44:34.806Z,1900
2018-11-27T07:45:36.824Z,1960
2018-11-27T07:46:38.861Z,2028
2018-11-27T07:47:40.900Z,2100
2018-11-27T07:48:42.922Z,2160
2018-11-27T07:49:44.939Z,2228
2018-11-27T07:50:47.256Z,2296
2018-11-27T07:51:49.274Z,2372
2018-11-27T07:52:51.304Z,2456
2018-11-27T07:53:53.339Z,2532
2018-11-27T07:54:55.352Z,2600
2018-11-27T07:55:57.391Z,2644
2018-11-27T07:56:59.695Z,2652
2018-11-27T07:58:01.732Z,2656
2018-11-27T07:59:04.426Z,2676
2018-11-27T08:00:06.464Z,2704
2018-11-27T08:01:08.492Z,2736
2018-11-27T08:02:10.908Z,2792
2018-11-27T08:03:12.933Z,2848
2018-11-27T08:04:14.968Z,2872
2018-11-27T08:05:16.998Z,2884
2018-11-27T08:06:19.032Z,2908
2018-11-27T08:07:21.329Z,2964
2018-11-27T08:08:23.404Z,3024
2018-11-27T08:09:27.121Z,3064
2018-11-27T08:10:29.252Z,3072
2018-11-27T08:11:31.296Z,3080
2018-11-27T08:12:33.319Z,3108
2018-11-27T08:13:35.644Z,3124
2018-11-27T08:14:37.680Z,3120
2018-11-27T08:15:39.708Z,3100
2018-11-27T08:16:41.734Z,3088
2018-11-27T08:17:43.762Z,3108
2018-11-27T08:18:45.779Z,3160
2018-11-27T08:19:48.104Z,3248
2018-11-27T08:20:50.139Z,3360
2018-11-27T08:21:52.169Z,3480
2018-11-27T08:22:54.183Z,3584
2018-11-27T08:23:56.611Z,3692
2018-11-27T08:24:59.017Z,3796
2018-11-27T08:26:01.426Z,3852
2018-11-27T08:27:03.850Z,3892
2018-11-27T08:28:05.866Z,3960
2018-11-27T08:29:07.895Z,4088
2018-11-27T08:30:09.921Z,4200
2018-11-27T08:31:11.972Z,4264
2018-11-27T08:32:13.995Z,4296
2018-11-27T08:33:16.028Z,4376
2018-11-27T08:34:18.059Z,4492
2018-11-27T08:35:20.358Z,4616
2018-11-27T08:36:22.410Z,4688
2018-11-27T08:37:24.439Z,4684
2018-11-27T08:38:26.463Z,4636
2018-11-27T08:39:28.789Z,4644
2018-11-27T08:40:30.826Z,4744
2018-11-27T08:41:40.172Z,4888
2018-11-27T08:42:42.632Z,4996
2018-11-27T08:43:44.659Z,4992
2018-11-27T08:44:46.701Z,4948
2018-11-27T08:45:48.723Z,4892
2018-11-27T08:46:51.033Z,4892
2018-11-27T08:47:53.074Z,4968
2018-11-27T08:48:55.386Z,5080
2018-11-27T08:49:57.455Z,5184
2018-11-27T08:50:59.497Z,5224
2018-11-27T08:52:01.523Z,5200
2018-11-27T08:53:03.555Z,5188
2018-11-27T08:54:05.600Z,5236
2018-11-27T08:55:07.626Z,5264
2018-11-27T08:56:09.678Z,5280
2018-11-27T08:57:11.711Z,5276
2018-11-27T08:58:13.726Z,5280
2018-11-27T08:59:15.757Z,5308
2018-11-27T09:00:17.786Z,5356
2018-11-27T09:01:19.793Z,5408
2018-11-27T09:02:21.831Z,5464
2018-11-27T09:03:23.852Z,5472
2018-11-27T09:04:25.885Z,5452
2018-11-27T09:05:27.895Z,5448
2018-11-27T09:06:29.920Z,5476
2018-11-27T09:07:31.945Z,5584
2018-11-27T09:08:33.961Z,5740
2018-11-27T09:09:36.000Z,5864
2018-11-27T09:10:38.015Z,5908
2018-11-27T09:11:40.040Z,5920
2018-11-27T09:12:42.064Z,5920
2018-11-27T09:13:44.110Z,5912
2018-11-27T09:14:46.414Z,5908
2018-11-27T09:15:48.827Z,5940
2018-11-27T09:16:51.256Z,5980
2018-11-27T09:17:53.269Z,5984
2018-11-27T09:18:55.309Z,5964
2018-11-27T09:19:57.339Z,5936
2018-11-27T09:20:59.913Z,5908
2018-11-27T09:22:01.938Z,5876
2018-11-27T09:23:03.974Z,5860
2018-11-27T09:24:06.033Z,5868
2018-11-27T09:25:08.103Z,5944
2018-11-27T09:26:10.464Z,6084
2018-11-27T09:27:12.480Z,6236
2018-11-27T09:28:14.512Z,6376
2018-11-27T09:29:16.565Z,6508
2018-11-27T09:30:18.583Z,6632
2018-11-27T09:31:20.905Z,6752
2018-11-27T09:32:23.333Z,6840
2018-11-27T09:33:25.654Z,6836
2018-11-27T09:34:28.489Z,6776
2018-11-27T09:35:30.616Z,6752
2018-11-27T09:36:32.644Z,6772
2018-11-27T09:37:34.670Z,6852
2018-11-27T09:38:36.720Z,6992
2018-11-27T09:39:38.743Z,7112
2018-11-27T09:40:41.064Z,7144
2018-11-27T09:41:43.101Z,7104
2018-11-27T09:42:45.391Z,7108
2018-11-27T09:43:47.436Z,7156
2018-11-27T09:44:50.029Z,7188
2018-11-27T09:45:52.072Z,7104
2018-11-27T09:46:54.099Z,6936
2018-11-27T09:47:56.140Z,6776
2018-11-27T09:48:58.559Z,6728
2018-11-27T09:50:00.581Z,6728
2018-11-27T09:51:02.635Z,6644
2018-11-27T09:52:04.931Z,6468
2018-11-27T09:53:06.972Z,6304
2018-11-27T09:54:09.009Z,6216
2018-11-27T09:55:11.038Z,6204
2018-11-27T09:56:13.357Z,6224
2018-11-27T09:57:15.388Z,6260
2018-11-27T09:58:17.420Z,6316
2018-11-27T09:59:19.448Z,6360
2018-11-27T10:00:21.850Z,6340
2018-11-27T10:01:24.166Z,6280
2018-11-27T10:02:26.198Z,6232
2018-11-27T10:03:28.217Z,6256
2018-11-27T10:04:30.300Z,6356
2018-11-27T10:05:32.333Z,6436
2018-11-27T10:06:34.359Z,6404
2018-11-27T10:07:36.404Z,6292
2018-11-27T10:08:38.714Z,6224
2018-11-27T10:09:40.760Z,6228
2018-11-27T10:10:42.783Z,6224
2018-11-27T10:11:44.828Z,6156
2018-11-27T10:12:46.851Z,6092
2018-11-27T10:13:49.159Z,6028
2018-11-27T10:14:51.195Z,5992
2018-11-27T10:15:53.209Z,6012
2018-11-27T10:16:55.251Z,6068
2018-11-27T10:17:57.282Z,6052
2018-11-27T10:18:59.330Z,5944
2018-11-27T10:20:01.341Z,5768
2018-11-27T10:21:03.768Z,5644
2018-11-27T10:22:05.792Z,5612
2018-11-27T10:23:07.813Z,5628
2018-11-27T10:24:10.248Z,5652
2018-11-27T10:25:12.262Z,5760
2018-11-27T10:26:14.290Z,5840
2018-11-27T10:27:16.336Z,5860
2018-11-27T10:28:18.368Z,5856
2018-11-27T10:29:20.414Z,5876
2018-11-27T10:30:23.163Z,5920
2018-11-27T10:31:26.031Z,5956
2018-11-27T10:32:28.726Z,5964
2018-11-27T10:33:31.586Z,6016
2018-11-27T10:34:34.379Z,6112
2018-11-27T10:35:36.788Z,6212
2018-11-27T10:36:38.805Z,6276
2018-11-27T10:37:40.842Z,6256
2018-11-27T10:38:42.876Z,6164
2018-11-27T10:39:44.904Z,6024
2018-11-27T10:40:46.950Z,5932
2018-11-27T10:41:48.972Z,5928
2018-11-27T10:42:51.015Z,5992
2018-11-27T10:43:53.532Z,6116
2018-11-27T10:44:55.571Z,6216
2018-11-27T10:45:57.875Z,6256
2018-11-27T10:46:59.903Z,6256
2018-11-27T10:48:01.946Z,6248
2018-11-27T10:49:03.958Z,6244
2018-11-27T10:50:06.003Z,6200
2018-11-27T10:51:08.330Z,6092
2018-11-27T10:52:10.365Z,5996
2018-11-27T10:53:12.378Z,5972
2018-11-27T10:54:14.797Z,6008
2018-11-27T10:55:16.828Z,6056
2018-11-27T10:56:18.862Z,6040
2018-11-27T10:57:20.908Z,5948
2018-11-27T10:58:22.929Z,5832
2018-11-27T10:59:24.979Z,5732
2018-11-27T11:00:27.022Z,5672
2018-11-27T11:01:29.069Z,5656
2018-11-27T11:02:31.092Z,5724
2018-11-27T11:03:33.405Z,5860
2018-11-27T11:04:35.426Z,5964
2018-11-27T11:05:37.456Z,6032
2018-11-27T11:06:39.508Z,6020
2018-11-27T11:07:41.539Z,5968
2018-11-27T11:08:43.555Z,5884
2018-11-27T11:09:45.591Z,5824
2018-11-27T11:10:47.610Z,5808
2018-11-27T11:11:49.641Z,5868
2018-11-27T11:12:51.665Z,5972
2018-11-27T11:13:53.710Z,6016
2018-11-27T11:14:55.739Z,6044
2018-11-27T11:15:57.767Z,6056
2018-11-27T11:16:59.789Z,6068
2018-11-27T11:18:01.826Z,6104
2018-11-27T11:19:03.856Z,6140
2018-11-27T11:20:06.170Z,6156
2018-11-27T11:21:08.503Z,6112
2018-11-27T11:22:10.811Z,5996
2018-11-27T11:23:12.846Z,5856
2018-11-27T11:24:14.882Z,5740
2018-11-27T11:25:17.204Z,5628
2018-11-27T11:26:19.225Z,5528
2018-11-27T11:27:21.271Z,5452
2018-11-27T11:28:23.301Z,5428
2018-11-27T11:29:25.609Z,5488
2018-11-27T11:30:28.330Z,5592
2018-11-27T11:31:30.629Z,5676
2018-11-27T11:32:32.696Z,5692
2018-11-27T11:33:34.735Z,5648
2018-11-27T11:34:36.761Z,5584
2018-11-27T11:35:38.785Z,5468
2018-11-27T11:36:40.817Z,5364
2018-11-27T11:37:42.858Z,5304
2018-11-27T11:38:44.884Z,5296
2018-11-27T11:39:46.935Z,5248
2018-11-27T11:40:49.293Z,5200
2018-11-27T11:41:51.318Z,5112
2018-11-27T11:42:53.362Z,4920
2018-11-27T11:43:55.400Z,4744
2018-11-27T11:44:57.436Z,4552
2018-11-27T11:45:59.472Z,4340
2018-11-27T11:47:01.538Z,4032
2018-11-27T11:48:03.575Z,3772
2018-11-27T11:49:05.601Z,3524
2018-11-27T11:50:07.637Z,3156
2018-11-27T11:51:09.656Z,2628
2018-11-27T11:52:11.970Z,2252
2018-11-27T11:53:14.005Z,2032
2018-11-27T11:54:16.021Z,1872
2018-11-27T11:55:18.070Z,1736
2018-11-27T11:56:20.090Z,1636
2018-11-27T11:57:22.119Z,1580
2018-11-27T11:58:24.156Z,1536
2018-11-27T11:59:28.753Z,1516
2018-11-27T12:00:30.891Z,1524
2018-11-27T12:01:33.222Z,1520
2018-11-27T12:02:35.256Z,1496
2018-11-27T12:03:37.270Z,1468
2018-11-27T12:04:39.301Z,1456
2018-11-27T12:05:41.335Z,1456
2018-11-27T12:06:43.354Z,1472
2018-11-27T12:07:45.385Z,1484
2018-11-27T12:08:47.423Z,1472
2018-11-27T12:09:49.460Z,1448
2018-11-27T12:10:51.647Z,1416
2018-11-27T12:11:53.683Z,1400
2018-11-27T12:12:55.988Z,1392
2018-11-27T12:13:58.024Z,1376
2018-11-27T12:15:00.470Z,1352
2018-11-27T12:16:02.494Z,1348
2018-11-27T12:17:04.528Z,1340
2018-11-27T12:18:06.554Z,1300
2018-11-27T12:19:08.583Z,1264
2018-11-27T12:20:10.915Z,1236
2018-11-27T12:21:12.940Z,1224
2018-11-27T12:22:14.978Z,1228
2018-11-27T12:23:17.001Z,1240
2018-11-27T12:24:19.037Z,1252
2018-11-27T12:25:24.089Z,1236
2018-11-27T12:26:26.403Z,1196
2018-11-27T12:27:28.444Z,1168
2018-11-27T12:28:30.474Z,1184
2018-11-27T12:29:32.771Z,1192
2018-11-27T12:30:34.801Z,1220
2018-11-27T12:31:37.215Z,1276
2018-11-27T12:32:39.258Z,1324
2018-11-27T12:33:41.291Z,1324
2018-11-27T12:34:43.327Z,1304
2018-11-27T12:35:45.357Z,1304
2018-11-27T12:36:47.650Z,1328
2018-11-27T12:37:49.684Z,1376
2018-11-27T12:38:51.711Z,1428
2018-11-27T12:39:53.731Z,1444
2018-11-27T12:40:55.760Z,1456
2018-11-27T12:41:57.792Z,1464
2018-11-27T12:43:00.121Z,1472
2018-11-27T12:44:02.154Z,1436
2018-11-27T12:45:04.566Z,1412
2018-11-27T12:46:06.592Z,1404
2018-11-27T12:47:08.918Z,1448
2018-11-27T12:48:11.271Z,1488
2018-11-27T12:49:13.854Z,1528
2018-11-27T12:50:15.893Z,1572
2018-11-27T12:51:18.295Z,1604
2018-11-27T12:52:21.098Z,1612
2018-11-27T12:53:23.433Z,1620
2018-11-27T12:54:25.460Z,1640
2018-11-27T12:55:27.488Z,1672
2018-11-27T12:56:29.508Z,1704
2018-11-27T12:57:31.940Z,1728
2018-11-27T12:58:33.970Z,1740
2018-11-27T12:59:35.999Z,1748
2018-11-27T13:00:38.038Z,1740
2018-11-27T13:01:40.053Z,1744
2018-11-27T13:02:42.120Z,1752
2018-11-27T13:03:44.441Z,1744
2018-11-27T13:04:46.477Z,1724
2018-11-27T13:05:48.493Z,1700
2018-11-27T13:06:50.524Z,1676
2018-11-27T13:07:52.608Z,1660
2018-11-27T13:08:54.638Z,1620
2018-11-27T13:09:56.654Z,1600
2018-11-27T13:10:58.694Z,1616
2018-11-27T13:12:00.730Z,1624
2018-11-27T13:13:02.751Z,1616
2018-11-27T13:14:04.781Z,1612
2018-11-27T13:15:06.818Z,1632
2018-11-27T13:16:08.847Z,1656
2018-11-27T13:17:10.888Z,1660
2018-11-27T13:18:12.920Z,1644
2018-11-27T13:19:14.941Z,1612
2018-11-27T13:20:16.970Z,1584
2018-11-27T13:21:19.017Z,1564
2018-11-27T13:22:21.038Z,1564
2018-11-27T13:23:23.072Z,1560
2018-11-27T13:24:25.112Z,1564
2018-11-27T13:25:27.149Z,1568
2018-11-27T13:26:29.231Z,1572
2018-11-27T13:27:31.255Z,1568
2018-11-27T13:28:33.285Z,1556
2018-11-27T13:29:35.301Z,1528
2018-11-27T13:30:38.513Z,1516
2018-11-27T13:31:40.673Z,1480
2018-11-27T13:32:42.709Z,1440
2018-11-27T13:33:44.760Z,1424
2018-11-27T13:34:52.461Z,1440
2018-11-27T13:35:54.626Z,1460
2018-11-27T13:36:56.657Z,1448
2018-11-27T13:37:58.690Z,1412
2018-11-27T13:39:00.712Z,1388
2018-11-27T13:40:02.746Z,1384
2018-11-27T13:41:04.775Z,1380
2018-11-27T13:42:06.813Z,1368
2018-11-27T13:43:09.148Z,1364
2018-11-27T13:44:11.463Z,1352
2018-11-27T13:45:13.883Z,1328
2018-11-27T13:46:15.902Z,1292
2018-11-27T13:47:17.942Z,1256
2018-11-27T13:48:19.973Z,1244
2018-11-27T13:49:22.006Z,1244
2018-11-27T13:50:24.329Z,1244
2018-11-27T13:51:26.512Z,1244
2018-11-27T13:52:28.544Z,1228
2018-11-27T13:53:30.962Z,1172
2018-11-27T13:54:33.039Z,1128
2018-11-27T13:55:35.115Z,1088
2018-11-27T13:56:37.153Z,1052
2018-11-27T13:57:39.238Z,1028
2018-11-27T13:58:41.536Z,1020
2018-11-27T13:59:44.304Z,996
2018-11-27T14:00:46.328Z,952
2018-11-27T14:01:48.716Z,876
2018-11-27T14:02:50.751Z,796
2018-11-27T14:03:53.676Z,748
2018-11-27T14:04:55.787Z,716
2018-11-27T14:05:57.842Z,704
2018-11-27T14:07:00.178Z,688
2018-11-27T14:08:02.212Z,664
2018-11-27T14:09:04.266Z,640
2018-11-27T14:10:06.329Z,608
2018-11-27T14:11:08.648Z,584
2018-11-27T14:12:10.672Z,564
2018-11-27T14:13:13.393Z,544
2018-11-27T14:14:15.500Z,528
2018-11-27T14:15:17.556Z,512
2018-11-27T14:16:19.631Z,496
2018-11-27T14:17:21.665Z,484
2018-11-27T14:18:23.716Z,468
2018-11-27T14:19:26.333Z,448
2018-11-27T14:20:28.398Z,428
2018-11-27T14:21:30.430Z,408
2018-11-27T14:22:32.505Z,400
2018-11-27T14:23:34.536Z,388
2018-11-27T14:24:36.584Z,376
2018-11-27T14:25:38.649Z,364
2018-11-27T14:26:40.684Z,348
2018-11-27T14:27:42.702Z,332
2018-11-27T14:28:44.739Z,320
2018-11-27T14:29:46.767Z,312